Fuji Maru — JD2030 — position and weather

sailwx.info

Track history (hours):
 
Tides and Currents Weather Stations Pressure Air Temp Water Temp Dewpoint Dewpoint Depression Visibility Wind Speed Wind Dir Waves Ship Positions

Fuji Maru

Last reported at 2014-Sep-20 08:28 UTC. Time now 2014-Sep-24 04:31 UTC.
Position N 35°37' E 139°46'.

Length 38 m; draft 4.4 m.

Type: Tug. MMSI: 431001102.

Date/timePositionNaut miles runAvg speedWind from/ knotsBaromVisibWave heightAir tempDewpointWater temp
2014-Sep-20 08:28N 35°37' E 139°46'0 0.1
2014-Sep-20 01:13N 35°37' E 139°46'3 2.5
2014-Sep-20 00:06N 35°37' E 139°49'1 0.8
2014-Sep-19 23:14N 35°36' E 139°50'1 1.3
2014-Sep-19 22:25N 35°37' E 139°49'4 4.7
2014-Sep-19 21:33N 35°34' E 139°52'7 0.4
2014-Sep-19 05:28N 35°39' E 139°46'0 0.0
2014-Sep-19 04:31N 35°39' E 139°46'0 0.0
2014-Sep-19 03:31N 35°39' E 139°46'0 0.0
2014-Sep-19 02:31N 35°39' E 139°46'0 0.0
2014-Sep-19 01:28N 35°39' E 139°46'0 0.0
2014-Sep-19 00:28N 35°39' E 139°46'0 0.0
2014-Sep-18 23:28N 35°39' E 139°46'0 0.0
2014-Sep-18 22:31N 35°39' E 139°46'8 8.3
2014-Sep-18 21:33N 35°33' E 139°53'6 5.4
2014-Sep-18 20:32N 35°36' E 139°47'3 2.9
2014-Sep-18 19:29N 35°39' E 139°46'0 0.0
2014-Sep-18 18:32N 35°39' E 139°46'0 0.0
2014-Sep-18 17:26N 35°39' E 139°46'0 0.0
2014-Sep-18 16:32N 35°39' E 139°46'0 0.0
2014-Sep-18 15:32N 35°39' E 139°46'0 0.0
2014-Sep-18 14:11N 35°39' E 139°46'0 0.0
2014-Sep-18 13:32N 35°39' E 139°46'0 0.0
2014-Sep-18 12:32N 35°39' E 139°46'0 0.0
2014-Sep-18 11:32N 35°39' E 139°46'0 0.0
2014-Sep-18 10:32N 35°39' E 139°46'0 0.0
2014-Sep-18 09:29N 35°39' E 139°46'0 0.0
2014-Sep-18 08:23N 35°39' E 139°46'0 0.0
2014-Sep-18 07:29N 35°39' E 139°46'0 0.0
2014-Sep-18 06:32N 35°39' E 139°46'0 0.0
2014-Sep-18 05:29N 35°39' E 139°46'0 0.0
2014-Sep-18 04:32N 35°39' E 139°46'0 0.0
2014-Sep-18 03:29N 35°39' E 139°46'0 0.0
2014-Sep-18 02:32N 35°39' E 139°46'0 0.0
2014-Sep-18 01:32N 35°39' E 139°46'0 0.0
2014-Sep-18 00:32N 35°39' E 139°46'0 0.0
2014-Sep-17 23:29N 35°39' E 139°46'0 0.0
2014-Sep-17 22:26N 35°39' E 139°46'0 0.1
2014-Sep-17 21:32N 35°39' E 139°46'0 0.0
2014-Sep-17 20:29N 35°39' E 139°46'0 0.0
2014-Sep-17 19:26N 35°39' E 139°46'0 0.1
2014-Sep-17 18:31N 35°39' E 139°46'0 0.0
2014-Sep-17 17:31N 35°39' E 139°46'0 0.0
2014-Sep-17 16:28N 35°39' E 139°46'0 0.0
2014-Sep-17 15:32N 35°39' E 139°46'0 0.0
2014-Sep-17 14:31N 35°39' E 139°46'0 0.0
2014-Sep-17 13:31N 35°39' E 139°46'0 0.0
2014-Sep-17 12:31N 35°39' E 139°46'0 0.0
2014-Sep-17 11:28N 35°39' E 139°46'0 0.0
2014-Sep-17 10:31N 35°39' E 139°46'0 0.0
2014-Sep-17 09:31N 35°39' E 139°46'0 0.0
2014-Sep-17 08:19N 35°39' E 139°46'0 0.0
2014-Sep-17 07:31N 35°39' E 139°46'0 0.0
2014-Sep-17 06:31N 35°39' E 139°46'0 0.0
2014-Sep-17 05:28N 35°39' E 139°46'0 0.0
2014-Sep-17 04:31N 35°39' E 139°46'0 0.0
2014-Sep-17 03:28N 35°39' E 139°46'0 0.0
2014-Sep-17 02:25N 35°39' E 139°46'0 0.0
2014-Sep-17 01:31N 35°39' E 139°46'0 0.0
2014-Sep-17 00:28N 35°39' E 139°46'0 0.0
2014-Sep-16 23:28N 35°39' E 139°46'0 0.0
2014-Sep-16 22:28N 35°39' E 139°46'0 0.1
2014-Sep-16 21:31N 35°39' E 139°46'0 0.0
2014-Sep-16 20:31N 35°39' E 139°46'0 0.0
2014-Sep-16 19:31N 35°39' E 139°46'0 0.0
2014-Sep-16 18:31N 35°39' E 139°46'0 0.0
2014-Sep-16 17:28N 35°39' E 139°46'0 0.1
2014-Sep-16 16:31N 35°39' E 139°46'0 0.0
2014-Sep-16 15:31N 35°39' E 139°46'0 0.0
2014-Sep-16 14:22N 35°39' E 139°46'0 0.0
2014-Sep-16 13:31N 35°39' E 139°46'0 0.0
2014-Sep-16 12:31N 35°39' E 139°46'0 0.0
2014-Sep-16 11:28N 35°39' E 139°46'0 0.0
2014-Sep-16 10:31N 35°39' E 139°46'0 0.0
2014-Sep-16 09:31N 35°39' E 139°46'0 0.0
2014-Sep-16 08:28N 35°39' E 139°46'0 0.0
2014-Sep-16 07:31N 35°39' E 139°46'0 0.0
2014-Sep-16 06:25N 35°39' E 139°46'0 0.0
2014-Sep-16 05:31N 35°39' E 139°46'0 0.0
2014-Sep-16 04:25N 35°39' E 139°46'3 3.1
2014-Sep-16 03:29N 35°36' E 139°47'2 2.5
2014-Sep-16 02:33N 35°34' E 139°49'2 2.1
2014-Sep-16 01:33N 35°35' E 139°47'3 3.4
2014-Sep-16 00:33N 35°39' E 139°46'0 0.0
2014-Sep-15 23:33N 35°39' E 139°46'0 0.0
2014-Sep-15 22:27N 35°39' E 139°46'0 0.0
2014-Sep-15 21:33N 35°39' E 139°46'0 0.0
2014-Sep-15 20:24N 35°39' E 139°46'0 0.1
2014-Sep-15 19:33N 35°39' E 139°46'0 0.0
2014-Sep-15 18:33N 35°39' E 139°46'0 0.0
2014-Sep-15 17:27N 35°39' E 139°46'0 0.0
2014-Sep-15 16:33N 35°39' E 139°46'0 0.0
2014-Sep-15 15:33N 35°39' E 139°46'0 0.0
2014-Sep-15 14:30N 35°39' E 139°46'0 0.0
2014-Sep-15 13:33N 35°39' E 139°46'0 0.0
2014-Sep-15 12:33N 35°39' E 139°46'0 0.0
2014-Sep-15 11:33N 35°39' E 139°46'0 0.0
2014-Sep-15 10:30N 35°39' E 139°46'0 0.0
2014-Sep-15 09:33N 35°39' E 139°46'0 0.0
2014-Sep-15 08:30N 35°39' E 139°46'0 0.0
2014-Sep-15 07:33N 35°39' E 139°46'2 1.9
2014-Sep-15 06:33N 35°37' E 139°46'1 1.4
2014-Sep-15 05:33N 35°36' E 139°47'3 3.2
2014-Sep-15 04:32N 35°39' E 139°46'0 0.0
2014-Sep-15 03:23N 35°39' E 139°46'0 0.0
2014-Sep-15 02:29N 35°39' E 139°46'0 0.0
2014-Sep-15 01:32N 35°39' E 139°46'0 0.0
2014-Sep-15 00:26N 35°39' E 139°46'3 3.2
2014-Sep-14 23:33N 35°36' E 139°47'3 2.5
2014-Sep-14 22:25N 35°39' E 139°46'0 0.0
2014-Sep-14 21:31N 35°39' E 139°46'0 0.0
2014-Sep-14 20:31N 35°39' E 139°46'0 0.0
2014-Sep-14 19:28N 35°39' E 139°46'0 0.0
2014-Sep-14 18:28N 35°39' E 139°46'0 0.1
2014-Sep-14 17:31N 35°39' E 139°46'0 0.0
2014-Sep-14 16:28N 35°39' E 139°46'0 0.0
2014-Sep-14 15:25N 35°39' E 139°46'0 0.0
2014-Sep-14 14:28N 35°39' E 139°46'0 0.1
2014-Sep-14 13:31N 35°39' E 139°46'0 0.0
2014-Sep-14 12:28N 35°39' E 139°46'0 0.0
2014-Sep-14 11:28N 35°39' E 139°46'0 0.0
2014-Sep-14 10:28N 35°39' E 139°46'3 2.7
2014-Sep-14 09:31N 35°36' E 139°46'2 2.3
2014-Sep-14 08:33N 35°35' E 139°48'1 1.3
2014-Sep-14 07:31N 35°35' E 139°47'2 1.6
2014-Sep-14 06:33N 35°37' E 139°46'2 1.7
2014-Sep-14 05:28N 35°39' E 139°46'0 0.0
2014-Sep-14 04:25N 35°39' E 139°46'0 0.0
2014-Sep-14 03:25N 35°39' E 139°46'0 0.0
2014-Sep-14 02:31N 35°39' E 139°46'0 0.0
2014-Sep-14 01:31N 35°39' E 139°46'4 0.9
2014-Sep-13 21:33N 35°35' E 139°48'4 3.6
2014-Sep-13 20:31N 35°39' E 139°46'0 0.0
2014-Sep-13 19:28N 35°39' E 139°46'0 0.1
2014-Sep-13 18:31N 35°39' E 139°46'0 0.0
2014-Sep-13 17:31N 35°39' E 139°46'0 0.0
2014-Sep-13 16:25N 35°39' E 139°46'0 0.1
2014-Sep-13 15:31N 35°39' E 139°46'0 0.0
2014-Sep-13 14:31N 35°39' E 139°46'0 0.0
2014-Sep-13 13:31N 35°39' E 139°46'0 0.0
2014-Sep-13 12:31N 35°39' E 139°46'0 0.0
2014-Sep-13 11:31N 35°39' E 139°46'0 0.0
2014-Sep-13 10:31N 35°39' E 139°46'3 2.6
2014-Sep-13 09:31N 35°36' E 139°47'2 2.4
2014-Sep-13 08:32N 35°34' E 139°48'3 2.9
2014-Sep-13 07:33N 35°37' E 139°46'2 2.1
2014-Sep-13 06:33N 35°39' E 139°46'0 0.0
2014-Sep-13 05:33N 35°39' E 139°46'0 0.0
2014-Sep-13 04:33N 35°39' E 139°46'0 0.0
2014-Sep-13 03:30N 35°39' E 139°46'0 0.0
2014-Sep-13 02:30N 35°39' E 139°46'0 0.0
2014-Sep-13 01:33N 35°39' E 139°46'0 0.0
2014-Sep-13 00:33N 35°39' E 139°46'0 0.0
2014-Sep-12 23:33N 35°39' E 139°46'3 2.7
2014-Sep-12 22:33N 35°36' E 139°46'3 3.3
2014-Sep-12 21:33N 35°34' E 139°50'4 3.6
2014-Sep-12 20:33N 35°37' E 139°47'2 2.2
2014-Sep-12 19:32N 35°39' E 139°46'0 0.0
2014-Sep-12 18:32N 35°39' E 139°46'0 0.0
2014-Sep-12 17:26N 35°39' E 139°46'0 0.0
2014-Sep-12 16:29N 35°39' E 139°46'0 0.0
2014-Sep-12 15:29N 35°39' E 139°46'0 0.0
2014-Sep-12 14:23N 35°39' E 139°46'0 0.0
2014-Sep-12 13:32N 35°39' E 139°46'0 0.0
2014-Sep-12 12:23N 35°39' E 139°46'0 0.0
2014-Sep-12 11:32N 35°39' E 139°46'0 0.0
2014-Sep-12 10:32N 35°39' E 139°46'0 0.0
2014-Sep-12 09:32N 35°39' E 139°46'0 0.0
2014-Sep-12 08:32N 35°39' E 139°46'3 2.6
2014-Sep-12 07:33N 35°36' E 139°47'1 1.1
2014-Sep-12 06:33N 35°35' E 139°47'4 3.6
2014-Sep-12 05:32N 35°39' E 139°46'0 0.0
2014-Sep-12 04:29N 35°39' E 139°46'0 0.0
2014-Sep-12 03:26N 35°39' E 139°46'0 0.0
2014-Sep-12 02:32N 35°39' E 139°46'0 0.0
2014-Sep-12 01:23N 35°39' E 139°46'0 0.0
2014-Sep-12 00:32N 35°39' E 139°46'0 0.0
2014-Sep-11 23:32N 35°39' E 139°46'0 0.0
2014-Sep-11 22:29N 35°39' E 139°46'0 0.0
2014-Sep-11 21:29N 35°39' E 139°46'0 0.0
2014-Sep-11 20:32N 35°39' E 139°46'0 0.0
2014-Sep-11 19:32N 35°39' E 139°46'0 0.0
2014-Sep-11 18:26N 35°39' E 139°46'0 0.0
2014-Sep-11 17:32N 35°39' E 139°46'0 0.0
2014-Sep-11 16:32N 35°39' E 139°46'0 0.0
2014-Sep-11 15:29N 35°39' E 139°46'0 0.0
2014-Sep-11 14:32N 35°39' E 139°46'4 3.7
2014-Sep-11 13:33N 35°35' E 139°47'3 3.0
2014-Sep-11 12:33N 35°38' E 139°45'2 2.1
2014-Sep-11 11:33N 35°36' E 139°46'2 2.1
2014-Sep-11 10:31N 35°38' E 139°45'0 0.0
2014-Sep-11 09:31N 35°38' E 139°45'0 0.0
2014-Sep-11 08:28N 35°38' E 139°45'4 3.8
2014-Sep-11 07:33N 35°35' E 139°48'4 3.9
2014-Sep-11 06:33N 35°39' E 139°46'0 0.1
2014-Sep-11 05:32N 35°39' E 139°46'0 0.0
2014-Sep-11 04:32N 35°39' E 139°46'0 0.0
2014-Sep-11 03:29N 35°39' E 139°46'0 0.1
2014-Sep-11 02:32N 35°39' E 139°46'0 0.0
2014-Sep-11 01:26N 35°39' E 139°46'0 0.0
2014-Sep-11 00:32N 35°39' E 139°46'0 0.0
2014-Sep-10 23:32N 35°39' E 139°46'2 2.2
2014-Sep-10 22:33N 35°37' E 139°46'2 2.1
2014-Sep-10 21:30N 35°39' E 139°46'3 3.4
2014-Sep-10 20:33N 35°36' E 139°47'3 3.1
2014-Sep-10 19:31N 35°39' E 139°46'0 0.0
2014-Sep-10 18:31N 35°39' E 139°46'0 0.0
2014-Sep-10 17:31N 35°39' E 139°46'0 0.0
2014-Sep-10 16:31N 35°39' E 139°46'0 0.0
2014-Sep-10 15:31N 35°39' E 139°46'0 0.0
2014-Sep-10 14:31N 35°39' E 139°46'0 0.0
2014-Sep-10 13:31N 35°39' E 139°46'0 0.0
2014-Sep-10 12:28N 35°39' E 139°46'0 0.0
2014-Sep-10 11:31N 35°39' E 139°46'0 0.0
2014-Sep-10 10:25N 35°39' E 139°46'0 0.0
2014-Sep-10 09:28N 35°39' E 139°46'0 0.0
2014-Sep-10 08:31N 35°39' E 139°46'  
Track history (hours):
 
Tides and Currents Weather Stations Pressure Air Temp Water Temp Dewpoint Dewpoint Depression Visibility Wind Speed Wind Dir Waves Ship Positions

Fuji Maru

Last reported at 2014-Sep-20 08:28 UTC. Time now 2014-Sep-24 04:31 UTC.
Position N 35°37' E 139°46'.

Length 38 m; draft 4.4 m.

Type: Tug. MMSI: 431001102.

Date/timePositionNaut miles runAvg speedWind from/ knotsBaromVisibWave heightAir tempDewpointWater temp
2014-Sep-20 08:28N 35°37' E 139°46'0 0.1
2014-Sep-20 01:13N 35°37' E 139°46'3 2.5
2014-Sep-20 00:06N 35°37' E 139°49'1 0.8
2014-Sep-19 23:14N 35°36' E 139°50'1 1.3
2014-Sep-19 22:25N 35°37' E 139°49'4 4.7
2014-Sep-19 21:33N 35°34' E 139°52'7 0.4
2014-Sep-19 05:28N 35°39' E 139°46'0 0.0
2014-Sep-19 04:31N 35°39' E 139°46'0 0.0
2014-Sep-19 03:31N 35°39' E 139°46'0 0.0
2014-Sep-19 02:31N 35°39' E 139°46'0 0.0
2014-Sep-19 01:28N 35°39' E 139°46'0 0.0
2014-Sep-19 00:28N 35°39' E 139°46'0 0.0
2014-Sep-18 23:28N 35°39' E 139°46'0 0.0
2014-Sep-18 22:31N 35°39' E 139°46'8 8.3
2014-Sep-18 21:33N 35°33' E 139°53'6 5.4
2014-Sep-18 20:32N 35°36' E 139°47'3 2.9
2014-Sep-18 19:29N 35°39' E 139°46'0 0.0
2014-Sep-18 18:32N 35°39' E 139°46'0 0.0
2014-Sep-18 17:26N 35°39' E 139°46'0 0.0
2014-Sep-18 16:32N 35°39' E 139°46'0 0.0
2014-Sep-18 15:32N 35°39' E 139°46'0 0.0
2014-Sep-18 14:11N 35°39' E 139°46'0 0.0
2014-Sep-18 13:32N 35°39' E 139°46'0 0.0
2014-Sep-18 12:32N 35°39' E 139°46'0 0.0
2014-Sep-18 11:32N 35°39' E 139°46'0 0.0
2014-Sep-18 10:32N 35°39' E 139°46'0 0.0
2014-Sep-18 09:29N 35°39' E 139°46'0 0.0
2014-Sep-18 08:23N 35°39' E 139°46'0 0.0
2014-Sep-18 07:29N 35°39' E 139°46'0 0.0
2014-Sep-18 06:32N 35°39' E 139°46'0 0.0
2014-Sep-18 05:29N 35°39' E 139°46'0 0.0
2014-Sep-18 04:32N 35°39' E 139°46'0 0.0
2014-Sep-18 03:29N 35°39' E 139°46'0 0.0
2014-Sep-18 02:32N 35°39' E 139°46'0 0.0
2014-Sep-18 01:32N 35°39' E 139°46'0 0.0
2014-Sep-18 00:32N 35°39' E 139°46'0 0.0
2014-Sep-17 23:29N 35°39' E 139°46'0 0.0
2014-Sep-17 22:26N 35°39' E 139°46'0 0.1
2014-Sep-17 21:32N 35°39' E 139°46'0 0.0
2014-Sep-17 20:29N 35°39' E 139°46'0 0.0
2014-Sep-17 19:26N 35°39' E 139°46'0 0.1
2014-Sep-17 18:31N 35°39' E 139°46'0 0.0
2014-Sep-17 17:31N 35°39' E 139°46'0 0.0
2014-Sep-17 16:28N 35°39' E 139°46'0 0.0
2014-Sep-17 15:32N 35°39' E 139°46'0 0.0
2014-Sep-17 14:31N 35°39' E 139°46'0 0.0
2014-Sep-17 13:31N 35°39' E 139°46'0 0.0
2014-Sep-17 12:31N 35°39' E 139°46'0 0.0
2014-Sep-17 11:28N 35°39' E 139°46'0 0.0
2014-Sep-17 10:31N 35°39' E 139°46'0 0.0
2014-Sep-17 09:31N 35°39' E 139°46'0 0.0
2014-Sep-17 08:19N 35°39' E 139°46'0 0.0
2014-Sep-17 07:31N 35°39' E 139°46'0 0.0
2014-Sep-17 06:31N 35°39' E 139°46'0 0.0
2014-Sep-17 05:28N 35°39' E 139°46'0 0.0
2014-Sep-17 04:31N 35°39' E 139°46'0 0.0
2014-Sep-17 03:28N 35°39' E 139°46'0 0.0
2014-Sep-17 02:25N 35°39' E 139°46'0 0.0
2014-Sep-17 01:31N 35°39' E 139°46'0 0.0
2014-Sep-17 00:28N 35°39' E 139°46'0 0.0
2014-Sep-16 23:28N 35°39' E 139°46'0 0.0
2014-Sep-16 22:28N 35°39' E 139°46'0 0.1
2014-Sep-16 21:31N 35°39' E 139°46'0 0.0
2014-Sep-16 20:31N 35°39' E 139°46'0 0.0
2014-Sep-16 19:31N 35°39' E 139°46'0 0.0
2014-Sep-16 18:31N 35°39' E 139°46'0 0.0
2014-Sep-16 17:28N 35°39' E 139°46'0 0.1
2014-Sep-16 16:31N 35°39' E 139°46'0 0.0
2014-Sep-16 15:31N 35°39' E 139°46'0 0.0
2014-Sep-16 14:22N 35°39' E 139°46'0 0.0
2014-Sep-16 13:31N 35°39' E 139°46'0 0.0
2014-Sep-16 12:31N 35°39' E 139°46'0 0.0
2014-Sep-16 11:28N 35°39' E 139°46'0 0.0
2014-Sep-16 10:31N 35°39' E 139°46'0 0.0
2014-Sep-16 09:31N 35°39' E 139°46'0 0.0
2014-Sep-16 08:28N 35°39' E 139°46'0 0.0
2014-Sep-16 07:31N 35°39' E 139°46'0 0.0
2014-Sep-16 06:25N 35°39' E 139°46'0 0.0
2014-Sep-16 05:31N 35°39' E 139°46'0 0.0
2014-Sep-16 04:25N 35°39' E 139°46'3 3.1
2014-Sep-16 03:29N 35°36' E 139°47'2 2.5
2014-Sep-16 02:33N 35°34' E 139°49'2 2.1
2014-Sep-16 01:33N 35°35' E 139°47'3 3.4
2014-Sep-16 00:33N 35°39' E 139°46'0 0.0
2014-Sep-15 23:33N 35°39' E 139°46'0 0.0
2014-Sep-15 22:27N 35°39' E 139°46'0 0.0
2014-Sep-15 21:33N 35°39' E 139°46'0 0.0
2014-Sep-15 20:24N 35°39' E 139°46'0 0.1
2014-Sep-15 19:33N 35°39' E 139°46'0 0.0
2014-Sep-15 18:33N 35°39' E 139°46'0 0.0
2014-Sep-15 17:27N 35°39' E 139°46'0 0.0
2014-Sep-15 16:33N 35°39' E 139°46'0 0.0
2014-Sep-15 15:33N 35°39' E 139°46'0 0.0
2014-Sep-15 14:30N 35°39' E 139°46'0 0.0
2014-Sep-15 13:33N 35°39' E 139°46'0 0.0
2014-Sep-15 12:33N 35°39' E 139°46'0 0.0
2014-Sep-15 11:33N 35°39' E 139°46'0 0.0
2014-Sep-15 10:30N 35°39' E 139°46'0 0.0
2014-Sep-15 09:33N 35°39' E 139°46'0 0.0
2014-Sep-15 08:30N 35°39' E 139°46'0 0.0
2014-Sep-15 07:33N 35°39' E 139°46'2 1.9
2014-Sep-15 06:33N 35°37' E 139°46'1 1.4
2014-Sep-15 05:33N 35°36' E 139°47'3 3.2
2014-Sep-15 04:32N 35°39' E 139°46'0 0.0
2014-Sep-15 03:23N 35°39' E 139°46'0 0.0
2014-Sep-15 02:29N 35°39' E 139°46'0 0.0
2014-Sep-15 01:32N 35°39' E 139°46'0 0.0
2014-Sep-15 00:26N 35°39' E 139°46'3 3.2
2014-Sep-14 23:33N 35°36' E 139°47'3 2.5
2014-Sep-14 22:25N 35°39' E 139°46'0 0.0
2014-Sep-14 21:31N 35°39' E 139°46'0 0.0
2014-Sep-14 20:31N 35°39' E 139°46'0 0.0
2014-Sep-14 19:28N 35°39' E 139°46'0 0.0
2014-Sep-14 18:28N 35°39' E 139°46'0 0.1
2014-Sep-14 17:31N 35°39' E 139°46'0 0.0
2014-Sep-14 16:28N 35°39' E 139°46'0 0.0
2014-Sep-14 15:25N 35°39' E 139°46'0 0.0
2014-Sep-14 14:28N 35°39' E 139°46'0 0.1
2014-Sep-14 13:31N 35°39' E 139°46'0 0.0
2014-Sep-14 12:28N 35°39' E 139°46'0 0.0
2014-Sep-14 11:28N 35°39' E 139°46'0 0.0
2014-Sep-14 10:28N 35°39' E 139°46'3 2.7
2014-Sep-14 09:31N 35°36' E 139°46'2 2.3
2014-Sep-14 08:33N 35°35' E 139°48'1 1.3
2014-Sep-14 07:31N 35°35' E 139°47'2 1.6
2014-Sep-14 06:33N 35°37' E 139°46'2 1.7
2014-Sep-14 05:28N 35°39' E 139°46'0 0.0
2014-Sep-14 04:25N 35°39' E 139°46'0 0.0
2014-Sep-14 03:25N 35°39' E 139°46'0 0.0
2014-Sep-14 02:31N 35°39' E 139°46'0 0.0
2014-Sep-14 01:31N 35°39' E 139°46'4 0.9
2014-Sep-13 21:33N 35°35' E 139°48'4 3.6
2014-Sep-13 20:31N 35°39' E 139°46'0 0.0
2014-Sep-13 19:28N 35°39' E 139°46'0 0.1
2014-Sep-13 18:31N 35°39' E 139°46'0 0.0
2014-Sep-13 17:31N 35°39' E 139°46'0 0.0
2014-Sep-13 16:25N 35°39' E 139°46'0 0.1
2014-Sep-13 15:31N 35°39' E 139°46'0 0.0
2014-Sep-13 14:31N 35°39' E 139°46'0 0.0
2014-Sep-13 13:31N 35°39' E 139°46'0 0.0
2014-Sep-13 12:31N 35°39' E 139°46'0 0.0
2014-Sep-13 11:31N 35°39' E 139°46'0 0.0
2014-Sep-13 10:31N 35°39' E 139°46'3 2.6
2014-Sep-13 09:31N 35°36' E 139°47'2 2.4
2014-Sep-13 08:32N 35°34' E 139°48'3 2.9
2014-Sep-13 07:33N 35°37' E 139°46'2 2.1
2014-Sep-13 06:33N 35°39' E 139°46'0 0.0
2014-Sep-13 05:33N 35°39' E 139°46'0 0.0
2014-Sep-13 04:33N 35°39' E 139°46'0 0.0
2014-Sep-13 03:30N 35°39' E 139°46'0 0.0
2014-Sep-13 02:30N 35°39' E 139°46'0 0.0
2014-Sep-13 01:33N 35°39' E 139°46'0 0.0
2014-Sep-13 00:33N 35°39' E 139°46'0 0.0
2014-Sep-12 23:33N 35°39' E 139°46'3 2.7
2014-Sep-12 22:33N 35°36' E 139°46'3 3.3
2014-Sep-12 21:33N 35°34' E 139°50'4 3.6
2014-Sep-12 20:33N 35°37' E 139°47'2 2.2
2014-Sep-12 19:32N 35°39' E 139°46'0 0.0
2014-Sep-12 18:32N 35°39' E 139°46'0 0.0
2014-Sep-12 17:26N 35°39' E 139°46'0 0.0
2014-Sep-12 16:29N 35°39' E 139°46'0 0.0
2014-Sep-12 15:29N 35°39' E 139°46'0 0.0
2014-Sep-12 14:23N 35°39' E 139°46'0 0.0
2014-Sep-12 13:32N 35°39' E 139°46'0 0.0
2014-Sep-12 12:23N 35°39' E 139°46'0 0.0
2014-Sep-12 11:32N 35°39' E 139°46'0 0.0
2014-Sep-12 10:32N 35°39' E 139°46'0 0.0
2014-Sep-12 09:32N 35°39' E 139°46'0 0.0
2014-Sep-12 08:32N 35°39' E 139°46'3 2.6
2014-Sep-12 07:33N 35°36' E 139°47'1 1.1
2014-Sep-12 06:33N 35°35' E 139°47'4 3.6
2014-Sep-12 05:32N 35°39' E 139°46'0 0.0
2014-Sep-12 04:29N 35°39' E 139°46'0 0.0
2014-Sep-12 03:26N 35°39' E 139°46'0 0.0
2014-Sep-12 02:32N 35°39' E 139°46'0 0.0
2014-Sep-12 01:23N 35°39' E 139°46'0 0.0
2014-Sep-12 00:32N 35°39' E 139°46'0 0.0
2014-Sep-11 23:32N 35°39' E 139°46'0 0.0
2014-Sep-11 22:29N 35°39' E 139°46'0 0.0
2014-Sep-11 21:29N 35°39' E 139°46'0 0.0
2014-Sep-11 20:32N 35°39' E 139°46'0 0.0
2014-Sep-11 19:32N 35°39' E 139°46'0 0.0
2014-Sep-11 18:26N 35°39' E 139°46'0 0.0
2014-Sep-11 17:32N 35°39' E 139°46'0 0.0
2014-Sep-11 16:32N 35°39' E 139°46'0 0.0
2014-Sep-11 15:29N 35°39' E 139°46'0 0.0
2014-Sep-11 14:32N 35°39' E 139°46'4 3.7
2014-Sep-11 13:33N 35°35' E 139°47'3 3.0
2014-Sep-11 12:33N 35°38' E 139°45'2 2.1
2014-Sep-11 11:33N 35°36' E 139°46'2 2.1
2014-Sep-11 10:31N 35°38' E 139°45'0 0.0
2014-Sep-11 09:31N 35°38' E 139°45'0 0.0
2014-Sep-11 08:28N 35°38' E 139°45'4 3.8
2014-Sep-11 07:33N 35°35' E 139°48'4 3.9
2014-Sep-11 06:33N 35°39' E 139°46'0 0.1
2014-Sep-11 05:32N 35°39' E 139°46'0 0.0
2014-Sep-11 04:32N 35°39' E 139°46'0 0.0
2014-Sep-11 03:29N 35°39' E 139°46'0 0.1
2014-Sep-11 02:32N 35°39' E 139°46'0 0.0
2014-Sep-11 01:26N 35°39' E 139°46'0 0.0
2014-Sep-11 00:32N 35°39' E 139°46'0 0.0
2014-Sep-10 23:32N 35°39' E 139°46'2 2.2
2014-Sep-10 22:33N 35°37' E 139°46'2 2.1
2014-Sep-10 21:30N 35°39' E 139°46'3 3.4
2014-Sep-10 20:33N 35°36' E 139°47'3 3.1
2014-Sep-10 19:31N 35°39' E 139°46'0 0.0
2014-Sep-10 18:31N 35°39' E 139°46'0 0.0
2014-Sep-10 17:31N 35°39' E 139°46'0 0.0
2014-Sep-10 16:31N 35°39' E 139°46'0 0.0
2014-Sep-10 15:31N 35°39' E 139°46'0 0.0
2014-Sep-10 14:31N 35°39' E 139°46'0 0.0
2014-Sep-10 13:31N 35°39' E 139°46'0 0.0
2014-Sep-10 12:28N 35°39' E 139°46'0 0.0
2014-Sep-10 11:31N 35°39' E 139°46'0 0.0
2014-Sep-10 10:25N 35°39' E 139°46'0 0.0
2014-Sep-10 09:28N 35°39' E 139°46'0 0.0
2014-Sep-10 08:31N 35°39' E 139°46'  

Dump ship's entire track history